Zvenigorodka, Ukraine

2:40 PM EET on March 20, 2019 (GMT +0200)
Mykolaiv | | Change Station

Elev 184 ft 47.05 °N, 31.92 °E | Updated 1 hour ago

Clear
Clear
57 °F
Feels Like 57 °F
N
4
Wind Variable Wind from NNW

Today
High -- | Low -- °F
--% Chance of Precip.
Yesterday
High -- | Low -- °F
Precip. -- in
Pressure 30.27 in
Visibility 6.2 miles
Clouds
Dew Point 39 °F
Humidity 51%
Rainfall 0.00 in
Snow Depth Not available.
5:58 AM 6:06 PM
Full, 100% visible
METAR UKON 201100Z 34002MPS 260V060 9999 NSC 14/04 Q1025 R04/090068 NOSIG
Pressure 30.27 in
Visibility 6.2 miles
Clouds
Dew Point 39 °F
Humidity 51%
Rainfall 0.00 in
Snow Depth Not available.
5:58 AM 6:06 PM
Full, 100% visible
METAR UKON 201100Z 34002MPS 260V060 9999 NSC 14/04 Q1025 R04/090068 NOSIG

Get Severe Weather Alerts

Thanks for signing up!

Be on the lookout for a verification email in your inbox.

You'll start receiving the daily forecast at 6 AM.

×

10-Day Weather Forecast

×

Almanac

Astronomy

Mar. 20, 2019 Rise Set
Actual Time
Civil Twilight
Nautical Twilight
Astronomical Twilight
Moon
Length of Visible Light
Length of Day
Tomorrow will be .
, % of the Moon is Illuminated

Today's Extremes

Country Highs Country Lows

Community

WunderPhotos

Category 6

Welcome to Category 6. This is the collective home for Weather Underground's featured writeups by Dr. Jeff Masters (right), Bob Henson (left), Chris Burt, and other regular contributors.

Nearby

Air Quality

  Air Quality AQ Index Pollutant
Not available.

Snow Depth

Station Depth Elevation

Earthquake Activity

City Distance Mag. Time & Date
Minimum magnitude displayed is 2.5.

Coastal Water Temperatures

Place Temperature

Stations

Nearby Weather Stations

Station Location Temp. Windchill Dew Point Humidity Wind Precip. Elev Updated Type